Time;durP1;ratioP1;P1;durP2;ratioP2;P2;SDS_P1;SDS_P2;PMS_P1;PMS_P2;Temp;Humidity;BMP_temperature;BMP_pressure;BME280_temperature;BME280_humidity;BME280_pressure;Samples;Min_cycle;Max_cycle;Signal;HPM_P1;HPM_P2
2022/12/17 13:06:53;;;;;;;32.05;11.43;;;;;;;-5.94;100.00;99500.09;4297810;33;20093;-72
2022/12/17 13:09:32;;;;;;;49.53;18.30;;;;;;;-5.90;100.00;99501.50;4296655;33;20052;-72
2022/12/17 13:11:59;;;;;;;57.08;17.60;;;;;;;-6.34;100.00;99448.50;4296601;33;20049;-72
2022/12/17 13:14:33;;;;;;;72.78;17.42;;;;;;;-6.41;100.00;99460.47;4263414;33;20348;-72
2022/12/17 13:17:07;;;;;;;59.67;15.90;;;;;;;-6.05;100.00;99502.84;4265788;33;20034;-71
2022/12/17 13:19:46;;;;;;;62.83;21.50;;;;;;;-6.24;100.00;99508.81;4234620;33;20068;-71
2022/12/17 13:22:15;;;;;;;47.85;12.45;;;;;;;-6.26;100.00;99468.81;4236857;33;20047;-72
2022/12/17 13:24:44;;;;;;;43.83;15.75;;;;;;;-5.98;100.00;99518.88;4235163;33;20060;-72
2022/12/17 13:27:33;;;;;;;55.40;18.23;;;;;;;-6.05;100.00;99513.31;4234082;33;20110;-72
2022/12/17 13:30:21;;;;;;;61.33;20.25;;;;;;;-5.97;100.00;99510.88;4230514;33;20893;-71
2022/12/17 13:32:56;;;;;;;41.70;17.85;;;;;;;-5.91;100.00;99509.50;4237262;33;20206;-73
2022/12/17 13:35:47;;;;;;;55.97;16.98;;;;;;;-6.16;100.00;99490.66;4235900;33;20073;-72
2022/12/17 13:38:25;;;;;;;59.10;16.33;;;;;;;-5.94;100.00;99531.56;4234626;33;20069;-72
2022/12/17 13:41:11;;;;;;;56.37;16.55;;;;;;;-6.10;100.00;99536.50;4204780;34;20204;-72
2022/12/17 13:43:48;;;;;;;33.80;14.75;;;;;;;-6.11;100.00;99529.56;4207090;34;20069;-71
2022/12/17 13:46:22;;;;;;;37.97;13.20;;;;;;;-6.39;100.00;99495.22;4220114;33;20055;-72
2022/12/17 13:48:56;;;;;;;62.22;17.92;;;;;;;-6.12;100.00;99522.69;4226108;33;20050;-72
2022/12/17 13:51:26;;;;;;;40.55;13.38;;;;;;;-6.12;100.00;99535.81;4242899;33;20034;-73
2022/12/17 13:53:58;;;;;;;57.97;20.90;;;;;;;-6.70;100.00;99481.25;4225804;33;20111;-73
2022/12/17 13:56:26;;;;;;;40.12;17.70;;;;;;;-6.28;100.00;99529.22;4223029;33;20027;-72
2022/12/17 13:58:54;;;;;;;57.62;17.20;;;;;;;-6.49;100.00;99489.09;4226187;33;20414;-72
2022/12/17 14:01:21;;;;;;;53.53;17.52;;;;;;;-6.40;100.00;99530.25;4222550;33;20050;-73
2022/12/17 14:03:52;;;;;;;47.28;18.05;;;;;;;-6.37;100.00;99540.47;4222564;34;20385;-74
2022/12/17 14:06:19;;;;;;;45.15;15.57;;;;;;;-6.31;100.00;99545.22;4208549;34;20039;-73
2022/12/17 14:08:49;;;;;;;70.80;19.27;;;;;;;-6.37;100.00;99550.97;4210052;34;20042;-73
2022/12/17 14:14:07;;;;;;;58.97;18.52;;;;;;;-6.70;100.00;99468.16;4210136;34;20084;-73
2022/12/17 14:16:34;;;;;;;58.83;17.15;;;;;;;-6.40;100.00;99530.25;4212269;34;20035;-73
2022/12/17 14:19:00;;;;;;;50.03;17.05;;;;;;;-6.25;100.00;99564.84;4223900;33;20054;-73
2022/12/17 14:21:28;;;;;;;54.95;17.17;;;;;;;-6.23;100.00;99568.16;4220794;33;20060;-73
2022/12/17 14:23:55;;;;;;;50.78;13.52;;;;;;;-6.32;100.00;99553.19;4217764;33;20097;-72
2022/12/17 14:26:21;;;;;;;40.83;15.38;;;;;;;-6.42;100.00;99561.81;4215841;34;20039;-74
2022/12/17 14:28:51;;;;;;;40.42;15.32;;;;;;;-6.33;100.00;99573.34;4214640;34;20069;-75
2022/12/17 14:31:21;;;;;;;59.05;17.17;;;;;;;-6.58;100.00;99538.69;4189683;34;20103;-75
2022/12/17 14:34:06;;;;;;;48.35;16.85;;;;;;;-6.35;100.00;99596.22;4191780;34;20043;-74
2022/12/17 14:36:35;;;;;;;48.28;13.77;;;;;;;-6.43;100.00;99596.00;4226746;33;20074;-74
2022/12/17 14:39:14;;;;;;;36.80;12.63;;;;;;;-6.80;100.00;99565.81;4249507;33;20043;-74
2022/12/17 14:44:29;;;;;;;51.55;16.98;;;;;;;-6.78;100.00;99615.44;4248868;33;20097;-75
2022/12/17 14:47:20;;;;;;;45.60;15.60;;;;;;;-6.68;100.00;99612.94;4251212;33;20081;-74
2022/12/17 14:50:03;;;;;;;45.50;15.00;;;;;;;-6.81;100.00;99586.88;4249934;33;20953;-73
2022/12/17 14:52:35;;;;;;;41.85;15.35;;;;;;;-6.54;100.00;99617.03;4248624;33;20451;-73
2022/12/17 14:55:23;;;;;;;46.88;16.52;;;;;;;-6.54;100.00;99619.66;4247571;33;20061;-73
2022/12/17 14:57:50;;;;;;;60.42;16.50;;;;;;;-6.64;100.00;99638.72;4247800;33;20135;-75
2022/12/17 15:00:18;;;;;;;42.38;14.73;;;;;;;-6.85;100.00;99624.75;4246915;33;20088;-74
2022/12/17 15:02:51;;;;;;;42.72;15.50;;;;;;;-6.94;100.00;99593.12;4248501;33;20413;-75
2022/12/17 15:05:18;;;;;;;43.05;14.52;;;;;;;-6.62;100.00;99635.97;4231480;33;20049;-75
2022/12/17 15:07:45;;;;;;;25.95;9.00;;;;;;;-6.68;100.00;99626.84;4236716;33;20926;-75
2022/12/17 15:10:17;;;;;;;62.72;19.70;;;;;;;-6.70;100.00;99639.25;4238482;33;20384;-74
2022/12/17 15:12:44;;;;;;;47.30;14.65;;;;;;;-6.47;100.00;99639.16;4251269;33;20490;-75
2022/12/17 15:15:13;;;;;;;40.78;13.55;;;;;;;-6.67;100.00;99644.25;4264769;33;20042;-74
2022/12/17 15:17:39;;;;;;;37.42;12.55;;;;;;;-6.46;100.00;99646.03;4263338;33;20391;-75
2022/12/17 15:20:18;;;;;;;44.28;13.55;;;;;;;-6.54;100.00;99648.47;4265259;33;20212;-75
2022/12/17 15:22:45;;;;;;;61.72;19.37;;;;;;;-6.45;100.00;99642.47;4265483;33;20088;-75
2022/12/17 15:25:14;;;;;;;21.67;9.02;;;;;;;-6.63;100.00;99632.53;4267192;33;20056;-75
2022/12/17 15:27:41;;;;;;;51.70;14.85;;;;;;;-6.68;100.00;99616.38;4264644;33;20063;-76
2022/12/17 15:30:13;;;;;;;36.55;11.60;;;;;;;-6.48;100.00;99650.59;4265109;33;20880;-75
2022/12/17 15:32:39;;;;;;;;;;;;;;;-6.54;100.00;99611.78;4265876;33;20045;-76
2022/12/17 15:35:13;;;;;;;20.98;9.10;;;;;;;-6.24;100.00;99677.44;4264311;33;20130;-76
2022/12/17 15:37:39;;;;;;;50.47;16.62;;;;;;;-6.59;100.00;99678.50;4235101;33;20424;-74
2022/12/17 15:40:09;;;;;;;39.05;13.82;;;;;;;-6.52;100.00;99672.78;4235218;33;20096;-75
2022/12/17 15:47:53;;;;;;;28.85;11.98;;;;;;;-6.54;100.00;99667.66;4263215;33;20440;-75
2022/12/17 15:50:20;;;;;;;42.97;15.60;;;;;;;-6.52;100.00;99673.59;4261529;33;20406;-77
2022/12/17 15:52:46;;;;;;;34.85;15.88;;;;;;;-6.51;100.00;99661.31;4263710;33;20081;-78
2022/12/17 15:55:14;;;;;;;52.40;15.90;;;;;;;-6.47;100.00;99675.84;4264029;33;20060;-77
2022/12/17 15:57:42;;;;;;;27.42;9.70;;;;;;;-6.29;100.00;99686.59;4264458;33;20038;-76
2022/12/17 16:00:09;;;;;;;51.10;17.10;;;;;;;-6.67;100.00;99633.75;4261248;33;20427;-75
2022/12/17 16:02:36;;;;;;;50.92;16.40;;;;;;;-6.60;100.00;99663.72;4262618;33;20072;-76
2022/12/17 16:05:04;;;;;;;50.45;16.30;;;;;;;-6.48;100.00;99684.66;4265245;33;20071;-77
2022/12/17 16:07:30;;;;;;;46.37;15.68;;;;;;;-6.32;100.00;99692.91;4237218;33;20065;-76
2022/12/17 16:09:57;;;;;;;39.95;12.65;;;;;;;-6.20;100.00;99693.72;4265166;33;20038;-76
2022/12/17 16:12:23;;;;;;;45.12;13.45;;;;;;;-6.54;100.00;99653.69;4263485;33;20050;-76
2022/12/17 16:14:50;;;;;;;66.03;20.00;;;;;;;-6.25;100.00;99693.28;4264713;33;20336;-76
2022/12/17 16:17:16;;;;;;;47.13;16.80;;;;;;;-6.13;100.00;99710.59;4265813;33;20489;-75
2022/12/17 16:19:43;;;;;;;52.03;14.50;;;;;;;-6.59;100.00;99651.47;4221931;34;20058;-76
2022/12/17 16:22:09;;;;;;;45.78;12.95;;;;;;;-6.21;100.00;99708.62;4222731;34;20118;-76
2022/12/17 16:24:36;;;;;;;51.65;14.20;;;;;;;-6.12;100.00;99719.31;4220346;34;20082;-76
2022/12/17 16:27:03;;;;;;;40.97;14.13;;;;;;;-6.06;100.00;99731.94;4221629;34;20059;-76
2022/12/17 16:29:30;;;;;;;47.55;14.43;;;;;;;-5.99;100.00;99725.22;4221607;34;20072;-80
2022/12/17 16:31:56;;;;;;;39.85;12.57;;;;;;;-5.96;100.00;99722.31;4220881;34;20055;-78
2022/12/17 16:34:23;;;;;;;45.10;14.32;;;;;;;-6.13;100.00;99699.28;4221664;34;20051;-78
2022/12/17 16:36:49;;;;;;;47.62;14.55;;;;;;;-5.92;100.00;99728.97;4211316;34;20038;-78
2022/12/17 16:39:18;;;;;;;55.05;16.33;;;;;;;-5.77;100.00;99723.41;4213135;34;20065;-77
2022/12/17 16:41:45;;;;;;;41.05;15.63;;;;;;;-5.58;100.00;99726.16;4217935;34;20069;-76
2022/12/17 16:44:11;;;;;;;47.58;17.58;;;;;;;-5.72;100.00;99723.88;4220162;33;20075;-75
2022/12/17 16:46:40;;;;;;;44.95;15.18;;;;;;;-5.85;100.00;99724.88;4240602;33;20047;-78
2022/12/17 16:49:10;;;;;;;53.00;17.65;;;;;;;-5.91;100.00;99709.63;4243064;33;20049;-76
2022/12/17 16:51:37;;;;;;;61.90;19.40;;;;;;;-5.55;100.00;99741.66;4243554;33;20101;-78
2022/12/17 16:54:06;;;;;;;36.17;14.60;;;;;;;-5.57;100.00;99746.19;4252584;33;20064;-77
2022/12/17 16:56:33;;;;;;;42.58;14.60;;;;;;;-5.38;100.00;99747.25;4261275;33;20236;-78
2022/12/17 16:59:03;;;;;;;54.17;16.45;;;;;;;-5.80;100.00;99705.31;4259672;33;20041;-80
2022/12/17 17:01:30;;;;;;;68.47;18.25;;;;;;;-5.47;100.00;99722.62;4263445;33;20880;-79
2022/12/17 17:03:57;;;;;;;44.95;16.02;;;;;;;-5.48;100.00;99737.53;4264066;33;20545;-76
2022/12/17 17:06:24;;;;;;;46.25;16.73;;;;;;;-5.50;100.00;99717.66;4264179;33;20876;-77
2022/12/17 17:08:50;;;;;;;65.60;19.73;;;;;;;-5.48;100.00;99724.41;4288567;33;20044;-76
2022/12/17 17:11:20;;;;;;;26.33;8.45;;;;;;;-5.37;100.00;99743.69;4262470;33;20134;-75
2022/12/17 17:13:56;;;;;;;35.85;11.93;;;;;;;-5.29;100.00;99747.31;4264865;33;20159;-76
2022/12/17 17:16:24;;;;;;;46.58;13.85;;;;;;;-5.23;100.00;99751.22;4264525;33;20101;-76
2022/12/17 17:18:51;;;;;;;51.60;14.00;;;;;;;-5.27;100.00;99760.31;4247713;33;20038;-75
2022/12/17 17:21:17;;;;;;;49.03;13.85;;;;;;;-5.27;100.00;99760.31;4249736;33;20042;-76
2022/12/17 17:23:49;;;;;;;32.15;12.82;;;;;;;-5.36;100.00;99766.34;4247688;33;20055;-75
2022/12/17 17:26:16;;;;;;;40.33;13.57;;;;;;;-5.37;100.00;99722.69;4251092;33;20064;-77
2022/12/17 17:28:44;;;;;;;44.95;14.57;;;;;;;-5.40;100.00;99722.94;4235392;33;20061;-76
2022/12/17 17:31:13;;;;;;;59.88;17.00;;;;;;;-4.97;100.00;99756.03;4234411;33;20038;-76
2022/12/17 17:33:43;;;;;;;46.20;14.18;;;;;;;-5.13;100.00;99731.09;4235385;33;20043;-75
2022/12/17 17:36:18;;;;;;;52.03;17.20;;;;;;;-5.05;100.00;99748.00;4231347;33;20035;-76
2022/12/17 17:38:46;;;;;;;48.97;13.77;;;;;;;-5.12;100.00;99735.38;4248036;33;20072;-75
2022/12/17 17:41:15;;;;;;;33.67;13.65;;;;;;;-5.02;100.00;99774.00;4247917;33;21495;-76
2022/12/17 17:43:42;;;;;;;48.33;14.18;;;;;;;-4.90;100.00;99786.06;4233730;33;20090;-77
2022/12/17 17:46:14;;;;;;;49.40;15.77;;;;;;;-5.02;100.00;99784.50;4233051;33;20035;-77
2022/12/17 17:48:42;;;;;;;30.58;7.25;;;;;;;-4.86;100.00;99779.59;4234668;33;20058;-76
2022/12/17 17:51:17;;;;;;;40.95;13.50;;;;;;;-4.88;100.00;99793.81;4230994;33;20378;-76
2022/12/17 17:53:46;;;;;;;44.78;15.82;;;;;;;-4.95;100.00;99748.84;4234187;33;20051;-75
2022/12/17 17:56:18;;;;;;;36.55;11.25;;;;;;;-4.71;100.00;99792.38;4235512;33;20038;-75
2022/12/17 17:58:50;;;;;;;39.72;14.70;;;;;;;-4.66;100.00;99779.66;4235542;33;20261;-75
2022/12/17 18:01:23;;;;;;;42.97;12.23;;;;;;;-4.78;100.00;99745.59;4262653;33;20042;-76
2022/12/17 18:03:51;;;;;;;45.28;14.57;;;;;;;-4.52;100.00;99781.91;4276219;33;20070;-76
2022/12/17 18:06:18;;;;;;;48.55;15.93;;;;;;;-4.44;100.00;99789.97;4275245;33;20074;-76
2022/12/17 18:08:45;;;;;;;3.45;2.87;;;;;;;-4.42;100.00;99795.09;4277622;33;20061;-76
2022/12/17 18:11:14;;;;;;;25.98;10.20;;;;;;;-4.52;100.00;99800.31;4274657;33;20093;-76
2022/12/17 18:13:54;;;;;;;40.83;15.65;;;;;;;-4.45;100.00;99803.22;4275895;33;20071;-75
2022/12/17 18:16:27;;;;;;;37.95;14.32;;;;;;;-4.30;100.00;99801.09;4276804;33;20069;-74
2022/12/17 18:18:59;;;;;;;43.58;16.15;;;;;;;-4.10;100.00;99818.56;4274737;33;20099;-73
2022/12/17 18:21:27;;;;;;;46.90;13.27;;;;;;;-4.12;100.00;99830.19;4283246;33;20074;-74
2022/12/17 18:23:59;;;;;;;49.67;14.85;;;;;;;-4.50;100.00;99784.41;4256146;33;20042;-73
2022/12/17 18:26:30;;;;;;;36.05;13.62;;;;;;;-4.11;100.00;99832.69;4263657;33;20078;-75
2022/12/17 18:29:03;;;;;;;39.63;14.90;;;;;;;-4.15;100.00;99831.28;4262435;33;20081;-72
2022/12/17 18:31:30;;;;;;;44.25;16.27;;;;;;;-4.17;100.00;99827.13;4236462;33;20328;-75
2022/12/17 18:34:02;;;;;;;41.92;15.48;;;;;;;-4.20;100.00;99834.34;4236420;33;20062;-73
2022/12/17 18:36:32;;;;;;;48.13;15.27;;;;;;;-4.05;100.00;99820.78;4234100;33;20410;-73
2022/12/17 18:39:07;;;;;;;21.23;9.43;;;;;;;-4.08;100.00;99837.66;4234173;33;20042;-74
2022/12/17 18:44:19;;;;;;;18.70;10.13;;;;;;;-4.21;100.00;99852.88;4191725;34;20740;-74
2022/12/17 18:46:46;;;;;;;40.85;14.32;;;;;;;-4.40;100.00;99817.66;4193116;34;20096;-74
2022/12/17 18:49:14;;;;;;;60.88;19.35;;;;;;;-4.26;100.00;99823.50;4192981;34;20069;-74
2022/12/17 18:51:44;;;;;;;42.38;17.70;;;;;;;-3.93;100.00;99876.75;4190875;34;20162;-73
2022/12/17 18:54:20;;;;;;;53.40;16.70;;;;;;;-4.21;100.00;99842.34;4195035;34;20030;-73
2022/12/17 18:56:47;;;;;;;40.75;13.18;;;;;;;-3.94;100.00;99885.59;4221834;33;20043;-73
2022/12/17 18:59:23;;;;;;;37.88;12.73;;;;;;;-4.22;100.00;99866.97;4221190;33;20125;-74
2022/12/17 19:01:57;;;;;;;41.22;13.62;;;;;;;-4.03;100.00;99877.56;4227947;33;20073;-73
2022/12/17 19:04:25;;;;;;;52.45;17.20;;;;;;;-3.96;100.00;99883.09;4264950;33;20288;-74
2022/12/17 19:06:58;;;;;;;23.73;8.35;;;;;;;-4.08;100.00;99885.03;4260460;33;20439;-74
2022/12/17 19:09:35;;;;;;;24.00;9.55;;;;;;;-4.66;100.00;99819.94;4262279;33;20170;-74
2022/12/17 19:12:06;;;;;;;28.73;10.38;;;;;;;-4.01;100.00;99874.78;4264559;33;20059;-74
2022/12/17 19:14:33;;;;;;;24.90;9.57;;;;;;;-4.09;100.00;99867.56;4275765;33;20045;-74
2022/12/17 19:17:00;;;;;;;29.90;13.65;;;;;;;-4.15;100.00;99889.13;4276486;33;20045;-75
2022/12/17 19:19:27;;;;;;;66.75;21.27;;;;;;;-4.16;100.00;99887.50;4276556;33;20190;-75
2022/12/17 19:21:55;;;;;;;34.15;12.32;;;;;;;-4.17;100.00;99872.66;4258973;33;20029;-74
2022/12/17 19:24:22;;;;;;;35.17;12.80;;;;;;;-4.04;100.00;99891.69;4231254;33;20039;-73
2022/12/17 19:26:49;;;;;;;40.08;16.33;;;;;;;-4.10;100.00;99891.38;4230511;33;20417;-74
2022/12/17 19:29:18;;;;;;;40.70;15.52;;;;;;;-4.00;100.00;99892.25;4218845;33;20280;-74
2022/12/17 19:31:44;;;;;;;35.65;12.23;;;;;;;-4.24;100.00;99858.41;4215361;33;20027;-75
2022/12/17 19:34:14;;;;;;;27.50;10.65;;;;;;;-4.02;100.00;99905.53;4206114;34;20537;-73
2022/12/17 19:36:41;;;;;;;43.92;16.02;;;;;;;-3.87;100.00;99913.03;4218236;33;20060;-74
2022/12/17 19:39:12;;;;;;;34.60;11.90;;;;;;;-4.11;100.00;99858.97;4204917;34;20054;-73
2022/12/17 19:41:45;;;;;;;30.60;11.75;;;;;;;-3.89;100.00;99910.53;4204774;34;20081;-74
2022/12/17 19:44:16;;;;;;;29.77;11.23;;;;;;;-4.06;100.00;99919.91;4200008;34;20111;-73
2022/12/17 19:46:43;;;;;;;45.28;13.73;;;;;;;-4.02;100.00;99904.69;4178460;34;20044;-74
2022/12/17 19:49:12;;;;;;;48.47;14.15;;;;;;;-3.96;100.00;99914.66;4178179;34;20039;-74
2022/12/17 19:51:42;;;;;;;30.95;10.93;;;;;;;-4.25;100.00;99890.91;4176493;34;20113;-73
2022/12/17 19:54:15;;;;;;;31.00;11.18;;;;;;;-4.07;100.00;99931.41;4190702;34;20090;-74
2022/12/17 19:56:43;;;;;;;17.98;8.18;;;;;;;-4.15;100.00;99919.88;4206002;34;20053;-75
2022/12/17 19:59:12;;;;;;;25.12;12.68;;;;;;;-4.06;100.00;99943.59;4208157;34;20077;-73
2022/12/17 20:01:42;;;;;;;37.08;13.55;;;;;;;-4.06;100.00;99919.91;4198125;34;20035;-74
2022/12/17 20:04:12;;;;;;;35.25;11.10;;;;;;;-4.07;100.00;99944.56;4197199;34;20170;-74
2022/12/17 20:06:38;;;;;;;40.00;13.15;;;;;;;-4.03;100.00;99940.69;4195427;34;20059;-74
2022/12/17 20:09:05;;;;;;;21.52;10.15;;;;;;;-4.06;100.00;99946.22;4220106;33;20060;-73
2022/12/17 20:11:33;;;;;;;40.75;14.23;;;;;;;-4.10;100.00;99944.84;4222222;33;20043;-73
2022/12/17 20:14:22;;;;;;;32.92;11.98;;;;;;;-4.07;100.00;99928.78;4205566;34;20082;-74
2022/12/17 20:16:55;;;;;;;29.05;12.27;;;;;;;-3.75;100.00;99948.81;4202458;34;20940;-73
2022/12/17 20:19:29;;;;;;;37.30;13.18;;;;;;;-3.84;100.00;99954.87;4207850;34;20038;-75
2022/12/17 20:21:58;;;;;;;35.60;13.32;;;;;;;-4.01;100.00;99919.50;4211675;34;20078;-73
2022/12/17 20:24:25;;;;;;;35.67;12.77;;;;;;;-3.82;100.00;99952.94;4208988;34;20073;-73
2022/12/17 20:26:52;;;;;;;38.60;13.52;;;;;;;-3.85;100.00;99959.28;4210034;34;20043;-74
2022/12/17 20:29:22;;;;;;;27.27;10.05;;;;;;;-4.03;100.00;99929.34;4206096;34;20077;-74
2022/12/17 20:31:50;;;;;;;26.45;9.65;;;;;;;-3.87;100.00;99965.69;4205378;34;20064;-74
2022/12/17 20:34:21;;;;;;;28.50;10.40;;;;;;;-3.91;100.00;99977.41;4206461;34;20127;-74
2022/12/17 20:36:50;;;;;;;30.73;10.60;;;;;;;-3.91;100.00;99964.25;4209498;34;20039;-73
2022/12/17 20:39:16;;;;;;;34.20;10.63;;;;;;;-3.80;100.00;99969.41;4205452;34;20133;-73
2022/12/17 20:41:43;;;;;;;24.60;9.30;;;;;;;-3.76;100.00;99978.72;4210030;33;20053;-74
2022/12/17 20:44:13;;;;;;;31.60;9.77;;;;;;;-3.95;100.00;99973.41;4240004;33;20065;-74
2022/12/17 20:46:40;;;;;;;10.02;5.62;;;;;;;-3.95;100.00;99955.00;4258471;33;20490;-74
2022/12/17 20:49:07;;;;;;;33.65;13.48;;;;;;;-4.26;100.00;99931.31;4258569;33;20103;-74
2022/12/17 20:51:34;;;;;;;22.20;8.73;;;;;;;-3.74;100.00;99992.56;4269441;33;20055;-75
2022/12/17 20:54:02;;;;;;;20.17;8.95;;;;;;;-4.19;100.00;99953.50;4274436;33;20065;-74
2022/12/17 20:56:32;;;;;;;32.33;10.15;;;;;;;-4.05;100.00;99952.31;4218254;33;20091;-73
2022/12/17 20:59:05;;;;;;;35.65;10.77;;;;;;;-3.63;100.00;100006.63;4194287;34;20055;-74
2022/12/17 21:01:32;;;;;;;;;;;;;;;-4.09;100.00;99946.47;4193513;34;20217;-74
2022/12/17 21:04:00;;;;;;;25.90;8.43;;;;;;;-3.84;100.00;100007.53;4194873;34;19976;-74
2022/12/17 21:06:41;;;;;;;34.10;10.73;;;;;;;-3.86;100.00;100019.94;4193618;34;20437;-74
2022/12/17 21:09:08;;;;;;;37.13;11.48;;;;;;;-3.73;100.00;100025.03;4194953;34;20055;-74
2022/12/17 21:11:36;;;;;;;40.45;11.43;;;;;;;-3.79;100.00;100025.53;4194434;34;20065;-74
2022/12/17 21:14:09;;;;;;;32.20;11.27;;;;;;;-3.73;100.00;100025.03;4221938;33;20060;-74
2022/12/17 21:16:43;;;;;;;35.88;12.68;;;;;;;-3.63;100.00;100030.31;4219916;34;20042;-73
2022/12/17 21:19:13;;;;;;;31.55;11.25;;;;;;;-3.85;100.00;100000.56;4220049;33;20244;-74
2022/12/17 21:21:39;;;;;;;13.68;5.45;;;;;;;-3.83;100.00;99993.37;4206526;34;20067;-74
2022/12/17 21:24:08;;;;;;;40.55;11.98;;;;;;;-3.99;100.00;100000.94;4206314;34;20090;-74
2022/12/17 21:26:37;;;;;;;42.78;14.27;;;;;;;-3.74;100.00;100029.44;4210065;33;20047;-75
2022/12/17 21:29:06;;;;;;;41.03;13.23;;;;;;;-3.56;100.00;100036.69;4234201;33;20043;-73
2022/12/17 21:31:43;;;;;;;38.10;12.45;;;;;;;-3.57;100.00;100045.59;4200492;34;20081;-74
2022/12/17 21:34:13;;;;;;;40.42;14.85;;;;;;;-3.68;100.00;100039.44;4205435;34;20043;-74
2022/12/17 21:36:40;;;;;;;48.40;13.77;;;;;;;-3.55;100.00;100048.91;4207678;34;20031;-74
2022/12/17 21:39:08;;;;;;;42.38;12.68;;;;;;;-3.67;100.00;100056.91;4207014;34;20587;-73
2022/12/17 21:41:37;;;;;;;59.17;16.52;;;;;;;-3.66;100.00;100042.75;4203732;34;20065;-74
2022/12/17 21:44:06;;;;;;;38.47;13.85;;;;;;;-3.51;100.00;100045.88;4194276;34;20059;-73
2022/12/17 21:46:33;;;;;;;35.55;10.35;;;;;;;-3.87;100.00;100008.59;4199041;34;20056;-73
2022/12/17 21:49:02;;;;;;;34.30;13.18;;;;;;;-3.69;100.00;100058.81;4197988;34;20139;-74
2022/12/17 21:51:30;;;;;;;41.00;14.00;;;;;;;-3.98;100.00;100047.34;4227425;33;20102;-72
2022/12/17 21:54:00;;;;;;;47.70;13.68;;;;;;;-4.07;100.00;100034.00;4251069;33;20230;-73
2022/12/17 21:56:27;;;;;;;40.42;13.82;;;;;;;-3.73;100.00;100062.69;4253913;33;20109;-74
2022/12/17 21:58:58;;;;;;;40.03;12.32;;;;;;;-4.03;100.00;100034.56;4257485;33;20158;-74
2022/12/17 22:01:30;;;;;;;30.30;10.73;;;;;;;-3.79;100.00;100067.66;4254674;33;20692;-74
2022/12/17 22:03:58;;;;;;;;;;;;;;;-3.83;100.00;100067.06;4284371;33;20524;-74
2022/12/17 22:06:26;;;;;;;35.55;13.13;;;;;;;-3.73;100.00;100073.22;4271922;33;20367;-74
2022/12/17 22:08:57;;;;;;;34.60;12.48;;;;;;;-4.09;100.00;100035.09;4271893;33;20045;-74
2022/12/17 22:11:31;;;;;;;44.28;13.38;;;;;;;-4.06;100.00;100038.28;4268490;33;20038;-74
2022/12/17 22:14:10;;;;;;;43.15;14.23;;;;;;;-3.92;100.00;100076.59;4264404;33;20376;-73
2022/12/17 22:16:45;;;;;;;32.53;12.40;;;;;;;-3.95;100.00;100078.66;4263985;33;20922;-73
2022/12/17 22:19:16;;;;;;;41.83;13.65;;;;;;;-3.86;100.00;100077.84;4262417;33;20050;-73
2022/12/17 22:21:43;;;;;;;44.90;14.85;;;;;;;-3.82;100.00;100084.53;4263562;33;20095;-74
2022/12/17 22:24:12;;;;;;;41.30;12.88;;;;;;;-4.14;100.00;100043.38;4260694;33;20478;-74
2022/12/17 22:26:39;;;;;;;34.50;12.30;;;;;;;-3.79;100.00;100094.78;4263714;33;20068;-73
2022/12/17 22:29:05;;;;;;;39.70;12.55;;;;;;;-3.97;100.00;100091.09;4264081;33;20122;-74
2022/12/17 22:34:18;;;;;;;37.30;12.13;;;;;;;-4.05;100.00;100104.91;4263795;33;20038;-74
2022/12/17 22:36:44;;;;;;;32.17;12.40;;;;;;;-3.99;100.00;100093.03;4261854;33;20062;-74
2022/12/17 22:39:13;;;;;;;26.65;10.77;;;;;;;-3.91;100.00;100111.63;4265525;33;20038;-73
2022/12/17 22:44:27;;;;;;;42.65;13.38;;;;;;;-4.02;100.00;100110.75;4265069;33;20110;-74
2022/12/17 22:46:54;;;;;;;43.13;13.88;;;;;;;-4.03;100.00;100119.59;4264511;33;20461;-73
2022/12/17 22:49:21;;;;;;;40.72;14.30;;;;;;;-4.03;100.00;100119.59;4278184;33;20061;-74
2022/12/17 22:51:48;;;;;;;54.65;13.93;;;;;;;-4.05;100.00;100124.16;4277212;33;20974;-75
2022/12/17 22:54:14;;;;;;;40.88;14.32;;;;;;;-4.03;100.00;100114.31;4277714;33;20050;-74
2022/12/17 22:56:42;;;;;;;43.45;13.25;;;;;;;-4.42;100.00;100072.00;4263722;33;20161;-75
2022/12/17 22:59:14;;;;;;;49.25;15.30;;;;;;;-4.03;100.00;100130.09;4261826;33;20087;-74
2022/12/17 23:01:41;;;;;;;44.75;14.05;;;;;;;-4.29;100.00;100089.34;4263725;33;20506;-73
2022/12/17 23:04:15;;;;;;;31.83;11.45;;;;;;;-4.16;100.00;100137.38;4258850;33;20789;-74
2022/12/17 23:06:46;;;;;;;35.13;13.50;;;;;;;-4.57;100.00;100094.28;4260391;33;20497;-75
2022/12/17 23:09:14;;;;;;;8.00;4.65;;;;;;;-4.20;100.00;100134.16;4264791;33;20045;-75
2022/12/17 23:11:40;;;;;;;58.78;15.25;;;;;;;-4.33;100.00;100148.44;4256524;33;20069;-73
2022/12/17 23:14:07;;;;;;;52.67;14.95;;;;;;;-4.39;100.00;100137.47;4261370;33;20157;-75
2022/12/17 23:16:36;;;;;;;47.95;14.05;;;;;;;-4.70;100.00;100099.72;4263313;33;20086;-75
2022/12/17 23:19:03;;;;;;;28.20;10.70;;;;;;;-4.59;100.00;100135.63;4257410;33;20057;-75
2022/12/17 23:21:30;;;;;;;33.08;11.85;;;;;;;-4.95;100.00;100116.62;4243223;33;20034;-75
2022/12/17 23:23:57;;;;;;;50.72;15.88;;;;;;;-4.70;100.00;100135.69;4239062;33;20094;-74
2022/12/17 23:26:33;;;;;;;46.53;15.75;;;;;;;-4.44;100.00;100163.28;4234384;33;20071;-74
2022/12/17 23:29:04;;;;;;;44.72;13.27;;;;;;;-4.24;100.00;100159.03;4227897;33;20094;-74
2022/12/17 23:31:38;;;;;;;50.85;15.73;;;;;;;-4.32;100.00;100150.09;4228642;33;20352;-73
2022/12/17 23:34:06;;;;;;;39.40;13.62;;;;;;;-4.38;100.00;100173.31;4233403;33;20049;-74
2022/12/17 23:36:33;;;;;;;46.83;13.40;;;;;;;-4.45;100.00;100177.41;4249726;33;20064;-75
2022/12/17 23:39:00;;;;;;;49.63;15.57;;;;;;;-4.84;100.00;100161.25;4252198;33;20067;-74
2022/12/17 23:41:29;;;;;;;54.67;15.43;;;;;;;-4.64;100.00;100179.84;4254392;33;20077;-74
2022/12/17 23:43:57;;;;;;;42.92;13.62;;;;;;;-4.64;100.00;100172.81;4245635;33;20209;-74
2022/12/17 23:46:26;;;;;;;42.08;12.07;;;;;;;-4.77;100.00;100141.44;4255808;33;20415;-73
2022/12/17 23:48:52;;;;;;;44.72;15.60;;;;;;;-4.58;100.00;100187.22;4258460;33;20041;-75
2022/12/17 23:51:21;;;;;;;42.90;14.73;;;;;;;-4.60;100.00;100178.66;4235879;33;20050;-75
2022/12/17 23:53:48;;;;;;;55.12;16.02;;;;;;;-4.90;100.00;100138.09;4249056;33;20109;-75
2022/12/17 23:56:22;;;;;;;49.38;12.27;;;;;;;-4.96;100.00;100131.56;4256206;33;20190;-74
2022/12/17 23:58:57;;;;;;;48.10;14.48;;;;;;;-4.41;100.00;100186.69;4288194;33;20053;-74
